sensor_id;sensor_type;location;lat;lon;timestamp;pressure;altitude;pressure_sealevel;temperature;humidity
58385;BME280;44185;47.844;8.966;2023-07-09T00:01:37;96614.81;;;16.66;100.00
58385;BME280;44185;47.844;8.966;2023-07-09T00:04:02;96607.41;;;16.52;100.00
58385;BME280;44185;47.844;8.966;2023-07-09T00:06:28;96618.03;;;16.43;100.00
58385;BME280;44185;47.844;8.966;2023-07-09T00:08:55;96622.63;;;16.25;100.00
58385;BME280;44185;47.844;8.966;2023-07-09T00:11:21;96611.81;;;16.26;100.00
58385;BME280;44185;47.844;8.966;2023-07-09T00:13:46;96619.22;;;16.14;100.00
58385;BME280;44185;47.844;8.966;2023-07-09T00:16:15;96612.78;;;16.25;100.00
58385;BME280;44185;47.844;8.966;2023-07-09T00:18:40;96616.03;;;16.37;100.00
58385;BME280;44185;47.844;8.966;2023-07-09T00:21:06;96611.00;;;16.34;100.00
58385;BME280;44185;47.844;8.966;2023-07-09T00:23:31;96618.34;;;16.40;100.00
58385;BME280;44185;47.844;8.966;2023-07-09T00:25:58;96618.16;;;16.33;100.00
58385;BME280;44185;47.844;8.966;2023-07-09T00:28:24;96624.00;;;16.29;100.00
58385;BME280;44185;47.844;8.966;2023-07-09T00:30:49;96612.38;;;16.11;100.00
58385;BME280;44185;47.844;8.966;2023-07-09T00:33:16;96617.81;;;16.01;100.00
58385;BME280;44185;47.844;8.966;2023-07-09T00:35:42;96611.16;;;16.06;100.00
58385;BME280;44185;47.844;8.966;2023-07-09T00:38:17;96622.56;;;16.08;100.00
58385;BME280;44185;47.844;8.966;2023-07-09T00:40:47;96610.91;;;16.17;100.00
58385;BME280;44185;47.844;8.966;2023-07-09T00:43:16;96624.25;;;16.17;100.00
58385;BME280;44185;47.844;8.966;2023-07-09T00:45:41;96617.56;;;16.13;100.00
58385;BME280;44185;47.844;8.966;2023-07-09T00:48:12;96620.09;;;15.96;100.00
58385;BME280;44185;47.844;8.966;2023-07-09T00:50:40;96624.41;;;15.89;100.00
58385;BME280;44185;47.844;8.966;2023-07-09T00:53:11;96617.75;;;15.93;100.00
58385;BME280;44185;47.844;8.966;2023-07-09T00:55:41;96615.38;;;15.90;100.00
58385;BME280;44185;47.844;8.966;2023-07-09T00:58:11;96613.50;;;15.82;100.00
58385;BME280;44185;47.844;8.966;2023-07-09T01:00:44;96626.06;;;15.90;100.00
58385;BME280;44185;47.844;8.966;2023-07-09T01:03:12;96620.72;;;15.90;100.00
58385;BME280;44185;47.844;8.966;2023-07-09T01:05:40;96623.84;;;15.59;100.00
58385;BME280;44185;47.844;8.966;2023-07-09T01:08:07;96629.44;;;15.47;100.00
58385;BME280;44185;47.844;8.966;2023-07-09T01:10:32;96624.09;;;15.47;100.00
58385;BME280;44185;47.844;8.966;2023-07-09T01:12:58;96616.63;;;15.51;100.00
58385;BME280;44185;47.844;8.966;2023-07-09T01:15:23;96620.50;;;15.56;100.00
58385;BME280;44185;47.844;8.966;2023-07-09T01:17:50;96627.44;;;15.49;100.00
58385;BME280;44185;47.844;8.966;2023-07-09T01:20:18;96628.28;;;15.50;100.00
58385;BME280;44185;47.844;8.966;2023-07-09T01:22:45;96640.25;;;15.45;100.00
58385;BME280;44185;47.844;8.966;2023-07-09T01:25:10;96640.72;;;15.41;100.00
58385;BME280;44185;47.844;8.966;2023-07-09T01:27:38;96636.50;;;15.56;100.00
58385;BME280;44185;47.844;8.966;2023-07-09T01:30:07;96637.09;;;15.68;100.00
58385;BME280;44185;47.844;8.966;2023-07-09T01:32:33;96636.09;;;15.70;100.00
58385;BME280;44185;47.844;8.966;2023-07-09T01:35:02;96640.22;;;15.64;100.00
58385;BME280;44185;47.844;8.966;2023-07-09T01:37:28;96639.94;;;15.49;100.00
58385;BME280;44185;47.844;8.966;2023-07-09T01:39:55;96634.31;;;15.33;100.00
58385;BME280;44185;47.844;8.966;2023-07-09T01:42:23;96643.06;;;15.44;100.00
58385;BME280;44185;47.844;8.966;2023-07-09T01:44:49;96644.06;;;15.43;100.00
58385;BME280;44185;47.844;8.966;2023-07-09T01:47:14;96638.63;;;15.34;100.00
58385;BME280;44185;47.844;8.966;2023-07-09T01:49:40;96642.16;;;15.35;100.00
58385;BME280;44185;47.844;8.966;2023-07-09T01:52:06;96631.56;;;15.25;100.00
58385;BME280;44185;47.844;8.966;2023-07-09T01:54:32;96635.59;;;15.29;100.00
58385;BME280;44185;47.844;8.966;2023-07-09T01:57:14;96634.16;;;15.17;100.00
58385;BME280;44185;47.844;8.966;2023-07-09T01:59:40;96630.34;;;15.19;100.00
58385;BME280;44185;47.844;8.966;2023-07-09T02:02:05;96622.94;;;15.13;100.00
58385;BME280;44185;47.844;8.966;2023-07-09T02:04:31;96622.13;;;15.12;100.00
58385;BME280;44185;47.844;8.966;2023-07-09T02:06:56;96636.06;;;15.25;100.00
58385;BME280;44185;47.844;8.966;2023-07-09T02:09:22;96623.56;;;15.25;100.00
58385;BME280;44185;47.844;8.966;2023-07-09T02:11:47;96626.91;;;15.27;100.00
58385;BME280;44185;47.844;8.966;2023-07-09T02:14:14;96624.84;;;15.21;100.00
58385;BME280;44185;47.844;8.966;2023-07-09T02:16:39;96636.13;;;15.15;100.00
58385;BME280;44185;47.844;8.966;2023-07-09T02:19:05;96641.53;;;15.05;100.00
58385;BME280;44185;47.844;8.966;2023-07-09T02:21:31;96638.09;;;14.94;100.00
58385;BME280;44185;47.844;8.966;2023-07-09T02:23:56;96643.19;;;15.06;100.00
58385;BME280;44185;47.844;8.966;2023-07-09T02:26:22;96641.38;;;15.06;100.00
58385;BME280;44185;47.844;8.966;2023-07-09T02:28:47;96650.13;;;14.98;100.00
58385;BME280;44185;47.844;8.966;2023-07-09T02:31:14;96644.81;;;14.98;100.00
58385;BME280;44185;47.844;8.966;2023-07-09T02:33:39;96651.59;;;15.11;100.00
58385;BME280;44185;47.844;8.966;2023-07-09T02:36:05;96654.94;;;15.13;100.00
58385;BME280;44185;47.844;8.966;2023-07-09T02:38:30;96662.16;;;15.03;100.00
58385;BME280;44185;47.844;8.966;2023-07-09T02:40:56;96663.00;;;15.03;100.00
58385;BME280;44185;47.844;8.966;2023-07-09T02:43:21;96657.66;;;15.03;100.00
58385;BME280;44185;47.844;8.966;2023-07-09T02:45:46;96660.03;;;15.06;100.00
58385;BME280;44185;47.844;8.966;2023-07-09T02:48:13;96661.63;;;14.99;100.00
58385;BME280;44185;47.844;8.966;2023-07-09T02:50:39;96654.91;;;14.95;100.00
58385;BME280;44185;47.844;8.966;2023-07-09T02:53:04;96663.63;;;14.97;100.00
58385;BME280;44185;47.844;8.966;2023-07-09T02:55:29;96660.56;;;14.82;100.00
58385;BME280;44185;47.844;8.966;2023-07-09T02:57:55;96666.47;;;14.57;100.00
58385;BME280;44185;47.844;8.966;2023-07-09T03:00:20;96667.28;;;14.57;100.00
58385;BME280;44185;47.844;8.966;2023-07-09T03:02:46;96661.91;;;14.67;100.00
58385;BME280;44185;47.844;8.966;2023-07-09T03:05:13;96668.63;;;14.72;100.00
58385;BME280;44185;47.844;8.966;2023-07-09T03:07:38;96672.22;;;14.81;100.00
58385;BME280;44185;47.844;8.966;2023-07-09T03:10:04;96672.06;;;14.82;100.00
58385;BME280;44185;47.844;8.966;2023-07-09T03:12:30;96667.72;;;14.81;100.00
58385;BME280;44185;47.844;8.966;2023-07-09T03:14:55;96671.72;;;14.67;100.00
58385;BME280;44185;47.844;8.966;2023-07-09T03:17:21;96673.44;;;14.58;100.00
58385;BME280;44185;47.844;8.966;2023-07-09T03:19:46;96675.25;;;14.67;100.00
58385;BME280;44185;47.844;8.966;2023-07-09T03:22:13;96669.59;;;14.71;100.00
58385;BME280;44185;47.844;8.966;2023-07-09T03:24:38;96667.94;;;14.70;100.00
58385;BME280;44185;47.844;8.966;2023-07-09T03:27:05;96666.19;;;14.50;100.00
58385;BME280;44185;47.844;8.966;2023-07-09T03:29:30;96667.81;;;14.33;100.00
58385;BME280;44185;47.844;8.966;2023-07-09T03:31:56;96664.03;;;14.36;100.00
58385;BME280;44185;47.844;8.966;2023-07-09T03:34:21;96669.22;;;14.27;100.00
58385;BME280;44185;47.844;8.966;2023-07-09T03:36:46;96664.31;;;14.32;100.00
58385;BME280;44185;47.844;8.966;2023-07-09T03:39:13;96672.69;;;14.38;100.00
58385;BME280;44185;47.844;8.966;2023-07-09T03:41:39;96677.41;;;14.44;100.00
58385;BME280;44185;47.844;8.966;2023-07-09T03:44:04;96675.41;;;14.56;100.00
58385;BME280;44185;47.844;8.966;2023-07-09T03:46:29;96679.16;;;14.63;100.00
58385;BME280;44185;47.844;8.966;2023-07-09T03:48:57;96671.34;;;14.52;100.00
58385;BME280;44185;47.844;8.966;2023-07-09T03:51:23;96671.97;;;14.45;100.00
58385;BME280;44185;47.844;8.966;2023-07-09T03:53:48;96675.59;;;14.44;100.00
58385;BME280;44185;47.844;8.966;2023-07-09T03:56:15;96679.78;;;14.47;100.00
58385;BME280;44185;47.844;8.966;2023-07-09T03:58:40;96679.22;;;14.53;100.00
58385;BME280;44185;47.844;8.966;2023-07-09T04:01:06;96683.84;;;14.51;100.00
58385;BME280;44185;47.844;8.966;2023-07-09T04:03:32;96686.53;;;14.51;100.00
58385;BME280;44185;47.844;8.966;2023-07-09T04:05:57;96690.88;;;14.42;100.00
58385;BME280;44185;47.844;8.966;2023-07-09T04:08:23;96694.69;;;14.40;100.00
58385;BME280;44185;47.844;8.966;2023-07-09T04:10:48;96698.19;;;14.40;100.00
58385;BME280;44185;47.844;8.966;2023-07-09T04:13:15;96700.97;;;14.39;100.00
58385;BME280;44185;47.844;8.966;2023-07-09T04:15:40;96696.53;;;14.29;100.00
58385;BME280;44185;47.844;8.966;2023-07-09T04:18:06;96694.41;;;14.43;100.00
58385;BME280;44185;47.844;8.966;2023-07-09T04:20:31;96700.84;;;14.40;100.00
58385;BME280;44185;47.844;8.966;2023-07-09T04:22:56;96698.31;;;14.49;100.00
58385;BME280;44185;47.844;8.966;2023-07-09T04:25:23;96703.44;;;14.60;100.00
58385;BME280;44185;47.844;8.966;2023-07-09T04:27:48;96708.00;;;14.68;100.00
58385;BME280;44185;47.844;8.966;2023-07-09T04:30:15;96707.16;;;14.77;100.00
58385;BME280;44185;47.844;8.966;2023-07-09T04:32:40;96699.81;;;14.89;100.00
58385;BME280;44185;47.844;8.966;2023-07-09T04:35:06;96704.78;;;15.03;100.00
58385;BME280;44185;47.844;8.966;2023-07-09T04:37:32;96698.50;;;15.22;100.00
58385;BME280;44185;47.844;8.966;2023-07-09T04:39:57;96694.72;;;15.43;100.00
58385;BME280;44185;47.844;8.966;2023-07-09T04:42:23;96697.38;;;15.61;100.00
58385;BME280;44185;47.844;8.966;2023-07-09T04:44:48;96707.75;;;15.83;100.00
58385;BME280;44185;47.844;8.966;2023-07-09T04:47:15;96697.44;;;15.88;100.00
58385;BME280;44185;47.844;8.966;2023-07-09T04:49:41;96703.88;;;16.04;100.00
58385;BME280;44185;47.844;8.966;2023-07-09T04:52:07;96705.88;;;16.01;100.00
58385;BME280;44185;47.844;8.966;2023-07-09T04:54:33;96700.41;;;16.21;100.00
58385;BME280;44185;47.844;8.966;2023-07-09T04:56:58;96700.78;;;16.35;100.00
58385;BME280;44185;47.844;8.966;2023-07-09T04:59:24;96704.19;;;16.45;100.00
58385;BME280;44185;47.844;8.966;2023-07-09T05:01:50;96695.22;;;16.55;100.00
58385;BME280;44185;47.844;8.966;2023-07-09T05:04:17;96694.75;;;16.60;100.00
58385;BME280;44185;47.844;8.966;2023-07-09T05:06:42;96695.16;;;16.73;100.00
58385;BME280;44185;47.844;8.966;2023-07-09T05:09:08;96697.66;;;16.75;100.00
58385;BME280;44185;47.844;8.966;2023-07-09T05:11:35;96696.34;;;16.79;100.00
58385;BME280;44185;47.844;8.966;2023-07-09T05:14:01;96704.19;;;16.81;100.00
58385;BME280;44185;47.844;8.966;2023-07-09T05:16:26;96702.06;;;16.84;100.00
58385;BME280;44185;47.844;8.966;2023-07-09T05:18:52;96708.41;;;16.92;100.00
58385;BME280;44185;47.844;8.966;2023-07-09T05:21:18;96705.78;;;17.00;100.00
58385;BME280;44185;47.844;8.966;2023-07-09T05:23:44;96702.81;;;17.11;100.00
58385;BME280;44185;47.844;8.966;2023-07-09T05:26:09;96705.19;;;17.23;100.00
58385;BME280;44185;47.844;8.966;2023-07-09T05:28:35;96712.28;;;17.41;100.00
58385;BME280;44185;47.844;8.966;2023-07-09T05:31:00;96711.81;;;17.54;100.00
58385;BME280;44185;47.844;8.966;2023-07-09T05:33:26;96705.44;;;17.63;100.00
58385;BME280;44185;47.844;8.966;2023-07-09T05:35:51;96709.31;;;17.77;100.00
58385;BME280;44185;47.844;8.966;2023-07-09T05:38:18;96708.47;;;18.02;100.00
58385;BME280;44185;47.844;8.966;2023-07-09T05:40:43;96698.06;;;18.16;100.00
58385;BME280;44185;47.844;8.966;2023-07-09T05:43:09;96700.44;;;18.36;100.00
58385;BME280;44185;47.844;8.966;2023-07-09T05:45:34;96700.88;;;18.56;100.00
58385;BME280;44185;47.844;8.966;2023-07-09T05:48:00;96693.09;;;18.78;100.00
58385;BME280;44185;47.844;8.966;2023-07-09T05:50:28;96698.84;;;19.07;100.00
58385;BME280;44185;47.844;8.966;2023-07-09T05:52:53;96700.28;;;19.26;99.57
58385;BME280;44185;47.844;8.966;2023-07-09T05:55:20;96701.97;;;19.51;96.49
58385;BME280;44185;47.844;8.966;2023-07-09T05:57:46;96698.28;;;19.75;94.62
58385;BME280;44185;47.844;8.966;2023-07-09T06:00:12;96701.78;;;19.99;94.03
58385;BME280;44185;47.844;8.966;2023-07-09T06:02:38;96704.88;;;20.11;90.21
58385;BME280;44185;47.844;8.966;2023-07-09T06:05:04;96702.50;;;20.17;89.80
58385;BME280;44185;47.844;8.966;2023-07-09T06:07:30;96699.47;;;20.50;88.68
58385;BME280;44185;47.844;8.966;2023-07-09T06:09:55;96706.72;;;20.80;88.79
58385;BME280;44185;47.844;8.966;2023-07-09T06:12:22;96706.72;;;20.80;89.18
58385;BME280;44185;47.844;8.966;2023-07-09T06:14:47;96699.94;;;21.15;88.99
58385;BME280;44185;47.844;8.966;2023-07-09T06:17:13;96706.16;;;21.52;87.12
58385;BME280;44185;47.844;8.966;2023-07-09T06:19:39;96712.81;;;21.78;83.38
58385;BME280;44185;47.844;8.966;2023-07-09T06:22:05;96710.25;;;22.14;82.83
58385;BME280;44185;47.844;8.966;2023-07-09T06:24:30;96719.03;;;22.52;81.02
58385;BME280;44185;47.844;8.966;2023-07-09T06:26:56;96716.31;;;22.81;78.07
58385;BME280;44185;47.844;8.966;2023-07-09T06:29:23;96714.53;;;22.95;80.27
58385;BME280;44185;47.844;8.966;2023-07-09T06:31:48;96712.34;;;23.26;78.75
58385;BME280;44185;47.844;8.966;2023-07-09T06:34:14;96716.75;;;23.33;75.78
58385;BME280;44185;47.844;8.966;2023-07-09T06:36:39;96708.63;;;23.33;75.16
58385;BME280;44185;47.844;8.966;2023-07-09T06:39:05;96714.56;;;23.58;75.96
58385;BME280;44185;47.844;8.966;2023-07-09T06:41:30;96715.25;;;24.00;75.09
58385;BME280;44185;47.844;8.966;2023-07-09T06:43:56;96703.84;;;24.32;71.29
58385;BME280;44185;47.844;8.966;2023-07-09T06:46:22;96708.19;;;24.40;69.86
58385;BME280;44185;47.844;8.966;2023-07-09T06:48:48;96708.59;;;24.10;71.84
58385;BME280;44185;47.844;8.966;2023-07-09T06:51:13;96711.94;;;24.46;71.57
58385;BME280;44185;47.844;8.966;2023-07-09T06:53:39;96712.56;;;24.55;70.76
58385;BME280;44185;47.844;8.966;2023-07-09T06:56:04;96717.94;;;24.62;71.22
58385;BME280;44185;47.844;8.966;2023-07-09T06:58:31;96723.78;;;24.59;70.05
58385;BME280;44185;47.844;8.966;2023-07-09T07:00:57;96718.91;;;25.02;68.89
58385;BME280;44185;47.844;8.966;2023-07-09T07:03:24;96719.84;;;24.54;66.61
58385;BME280;44185;47.844;8.966;2023-07-09T07:05:52;96713.75;;;24.73;66.11
58385;BME280;44185;47.844;8.966;2023-07-09T07:08:20;96713.44;;;25.15;67.83
58385;BME280;44185;47.844;8.966;2023-07-09T07:10:45;96718.81;;;25.61;66.55
58385;BME280;44185;47.844;8.966;2023-07-09T07:13:11;96707.75;;;26.02;64.46
58385;BME280;44185;47.844;8.966;2023-07-09T07:15:37;96714.59;;;26.30;62.75
58385;BME280;44185;47.844;8.966;2023-07-09T07:18:02;96710.75;;;26.45;60.54
58385;BME280;44185;47.844;8.966;2023-07-09T07:20:30;96719.44;;;26.54;60.35
58385;BME280;44185;47.844;8.966;2023-07-09T07:22:55;96705.72;;;25.97;62.68
58385;BME280;44185;47.844;8.966;2023-07-09T07:25:21;96706.78;;;26.48;63.27
58385;BME280;44185;47.844;8.966;2023-07-09T07:27:46;96706.66;;;26.10;61.51
58385;BME280;44185;47.844;8.966;2023-07-09T07:30:12;96703.69;;;25.86;62.89
58385;BME280;44185;47.844;8.966;2023-07-09T07:32:43;96704.09;;;26.15;61.33
58385;BME280;44185;47.844;8.966;2023-07-09T07:35:08;96707.63;;;26.41;60.58
58385;BME280;44185;47.844;8.966;2023-07-09T07:37:35;96706.41;;;26.63;61.54
58385;BME280;44185;47.844;8.966;2023-07-09T07:40:00;96699.22;;;26.50;61.45
58385;BME280;44185;47.844;8.966;2023-07-09T07:42:26;96699.16;;;26.31;60.42
58385;BME280;44185;47.844;8.966;2023-07-09T07:44:51;96698.31;;;26.30;60.49
58385;BME280;44185;47.844;8.966;2023-07-09T07:47:17;96694.50;;;26.38;60.94
58385;BME280;44185;47.844;8.966;2023-07-09T07:49:42;96693.28;;;26.60;61.69
58385;BME280;44185;47.844;8.966;2023-07-09T07:52:08;96690.16;;;26.12;59.26
58385;BME280;44185;47.844;8.966;2023-07-09T07:54:34;96692.63;;;26.39;59.53
58385;BME280;44185;47.844;8.966;2023-07-09T07:57:00;96689.16;;;26.76;58.71
58385;BME280;44185;47.844;8.966;2023-07-09T07:59:25;96684.78;;;26.75;57.35
58385;BME280;44185;47.844;8.966;2023-07-09T08:01:51;96688.84;;;27.22;56.82
58385;BME280;44185;47.844;8.966;2023-07-09T08:04:16;96695.16;;;27.35;57.90
58385;BME280;44185;47.844;8.966;2023-07-09T08:06:42;96695.53;;;28.12;57.57
58385;BME280;44185;47.844;8.966;2023-07-09T08:09:08;96695.88;;;28.16;53.11
58385;BME280;44185;47.844;8.966;2023-07-09T08:11:34;96695.16;;;27.96;55.12
58385;BME280;44185;47.844;8.966;2023-07-09T08:14:00;96687.50;;;27.74;55.56
58385;BME280;44185;47.844;8.966;2023-07-09T08:16:26;96692.44;;;27.35;56.66
58385;BME280;44185;47.844;8.966;2023-07-09T08:18:51;96697.16;;;27.27;57.43
58385;BME280;44185;47.844;8.966;2023-07-09T08:21:17;96696.44;;;27.32;57.81
58385;BME280;44185;47.844;8.966;2023-07-09T08:23:42;96696.25;;;27.76;57.51
58385;BME280;44185;47.844;8.966;2023-07-09T08:26:08;96699.91;;;28.61;56.62
58385;BME280;44185;47.844;8.966;2023-07-09T08:28:35;96699.94;;;28.73;53.91
58385;BME280;44185;47.844;8.966;2023-07-09T08:31:00;96694.47;;;28.37;56.95
58385;BME280;44185;47.844;8.966;2023-07-09T08:33:26;96692.06;;;29.13;55.13
58385;BME280;44185;47.844;8.966;2023-07-09T08:35:53;96687.09;;;29.69;53.13
58385;BME280;44185;47.844;8.966;2023-07-09T08:38:19;96694.97;;;30.00;52.34
58385;BME280;44185;47.844;8.966;2023-07-09T08:40:53;96692.16;;;29.48;50.55
58385;BME280;44185;47.844;8.966;2023-07-09T08:54:15;96704.72;;;30.64;49.47
58385;BME280;44185;47.844;8.966;2023-07-09T08:56:43;96702.63;;;30.89;48.19
58385;BME280;44185;47.844;8.966;2023-07-09T08:59:14;96707.19;;;31.06;47.90
58385;BME280;44185;47.844;8.966;2023-07-09T09:01:48;96700.63;;;31.29;46.99
58385;BME280;44185;47.844;8.966;2023-07-09T09:04:24;96697.78;;;31.19;48.55
58385;BME280;44185;47.844;8.966;2023-07-09T09:06:53;96702.63;;;30.72;47.99
58385;BME280;44185;47.844;8.966;2023-07-09T09:09:28;96702.41;;;29.87;48.28
58385;BME280;44185;47.844;8.966;2023-07-09T09:12:02;96696.13;;;30.56;48.80
58385;BME280;44185;47.844;8.966;2023-07-09T09:14:31;96701.00;;;30.71;46.75
58385;BME280;44185;47.844;8.966;2023-07-09T09:16:59;96698.75;;;31.07;48.05
58385;BME280;44185;47.844;8.966;2023-07-09T09:19:27;96696.22;;;31.23;45.60
58385;BME280;44185;47.844;8.966;2023-07-09T09:21:57;96689.56;;;31.41;45.11
58385;BME280;44185;47.844;8.966;2023-07-09T09:24:30;96690.47;;;31.47;46.82
58385;BME280;44185;47.844;8.966;2023-07-09T09:26:58;96686.38;;;31.50;43.64
58385;BME280;44185;47.844;8.966;2023-07-09T09:29:25;96681.28;;;30.69;43.44
58385;BME280;44185;47.844;8.966;2023-07-09T09:31:54;96691.16;;;30.92;42.52
58385;BME280;44185;47.844;8.966;2023-07-09T09:34:21;96683.31;;;30.56;43.59
58385;BME280;44185;47.844;8.966;2023-07-09T09:36:47;96679.72;;;30.33;44.26
58385;BME280;44185;47.844;8.966;2023-07-09T09:39:13;96674.22;;;30.16;43.85
58385;BME280;44185;47.844;8.966;2023-07-09T09:41:40;96683.66;;;30.08;43.52
58385;BME280;44185;47.844;8.966;2023-07-09T09:44:05;96678.47;;;30.41;44.51
58385;BME280;44185;47.844;8.966;2023-07-09T09:46:32;96673.22;;;30.79;43.46
58385;BME280;44185;47.844;8.966;2023-07-09T09:49:00;96678.75;;;30.84;44.28
58385;BME280;44185;47.844;8.966;2023-07-09T09:51:26;96675.41;;;30.37;45.37
58385;BME280;44185;47.844;8.966;2023-07-09T09:53:55;96672.16;;;30.80;47.30
58385;BME280;44185;47.844;8.966;2023-07-09T09:56:27;96672.22;;;31.30;45.55
58385;BME280;44185;47.844;8.966;2023-07-09T09:58:55;96676.66;;;30.69;43.48
58385;BME280;44185;47.844;8.966;2023-07-09T10:01:26;96666.16;;;30.04;43.81
58385;BME280;44185;47.844;8.966;2023-07-09T10:03:56;96668.38;;;29.90;45.76
58385;BME280;44185;47.844;8.966;2023-07-09T10:06:35;96667.34;;;30.48;47.89
58385;BME280;44185;47.844;8.966;2023-07-09T10:09:05;96667.94;;;30.15;46.39
58385;BME280;44185;47.844;8.966;2023-07-09T10:11:44;96665.34;;;30.60;46.30
58385;BME280;44185;47.844;8.966;2023-07-09T10:14:24;96659.81;;;29.69;47.29
58385;BME280;44185;47.844;8.966;2023-07-09T10:16:56;96662.19;;;30.12;42.90
58385;BME280;44185;47.844;8.966;2023-07-09T10:19:28;96669.28;;;30.30;42.33
58385;BME280;44185;47.844;8.966;2023-07-09T10:22:00;96672.25;;;30.11;43.68
58385;BME280;44185;47.844;8.966;2023-07-09T10:24:37;96670.09;;;30.13;41.28
58385;BME280;44185;47.844;8.966;2023-07-09T10:27:09;96671.84;;;30.19;43.36
58385;BME280;44185;47.844;8.966;2023-07-09T10:29:54;96662.75;;;30.14;46.37
58385;BME280;44185;47.844;8.966;2023-07-09T10:32:37;96660.63;;;30.33;47.53
58385;BME280;44185;47.844;8.966;2023-07-09T10:35:13;96653.97;;;29.94;42.13
58385;BME280;44185;47.844;8.966;2023-07-09T10:37:56;96658.56;;;29.89;43.24
58385;BME280;44185;47.844;8.966;2023-07-09T10:40:32;96660.19;;;29.72;42.26
58385;BME280;44185;47.844;8.966;2023-07-09T10:43:00;96662.50;;;29.81;42.38
58385;BME280;44185;47.844;8.966;2023-07-09T10:45:29;96654.06;;;30.00;41.76
58385;BME280;44185;47.844;8.966;2023-07-09T10:47:59;96651.94;;;30.02;39.29
58385;BME280;44185;47.844;8.966;2023-07-09T10:50:29;96644.78;;;30.18;39.90
58385;BME280;44185;47.844;8.966;2023-07-09T10:53:00;96647.44;;;30.13;38.86
58385;BME280;44185;47.844;8.966;2023-07-09T10:55:30;96635.53;;;30.19;39.79
58385;BME280;44185;47.844;8.966;2023-07-09T10:57:59;96637.69;;;30.34;38.93
58385;BME280;44185;47.844;8.966;2023-07-09T11:00:33;96631.22;;;30.23;36.61
58385;BME280;44185;47.844;8.966;2023-07-09T11:03:04;96629.28;;;30.01;38.79
58385;BME280;44185;47.844;8.966;2023-07-09T11:05:31;96631.50;;;30.39;40.08
58385;BME280;44185;47.844;8.966;2023-07-09T11:08:02;96627.63;;;30.17;39.77
58385;BME280;44185;47.844;8.966;2023-07-09T11:10:32;96628.19;;;30.19;39.96
58385;BME280;44185;47.844;8.966;2023-07-09T11:13:01;96619.50;;;30.23;39.09
58385;BME280;44185;47.844;8.966;2023-07-09T11:15:34;96630.84;;;29.80;40.16
58385;BME280;44185;47.844;8.966;2023-07-09T11:18:04;96618.75;;;30.10;40.39
58385;BME280;44185;47.844;8.966;2023-07-09T11:20:33;96624.69;;;30.24;40.34
58385;BME280;44185;47.844;8.966;2023-07-09T11:23:02;96625.03;;;30.28;39.95
58385;BME280;44185;47.844;8.966;2023-07-09T11:25:30;96621.78;;;30.48;39.89
58385;BME280;44185;47.844;8.966;2023-07-09T11:28:03;96622.41;;;30.33;39.40
58385;BME280;44185;47.844;8.966;2023-07-09T11:30:31;96629.66;;;30.67;39.23
58385;BME280;44185;47.844;8.966;2023-07-09T11:32:58;96629.81;;;30.78;39.80
58385;BME280;44185;47.844;8.966;2023-07-09T11:35:25;96631.47;;;30.79;39.86
58385;BME280;44185;47.844;8.966;2023-07-09T11:37:52;96618.81;;;30.72;41.39
58385;BME280;44185;47.844;8.966;2023-07-09T11:40:18;96623.22;;;30.73;38.93
58385;BME280;44185;47.844;8.966;2023-07-09T11:42:49;96619.09;;;30.71;40.15
58385;BME280;44185;47.844;8.966;2023-07-09T11:45:19;96623.66;;;30.65;38.56
58385;BME280;44185;47.844;8.966;2023-07-09T11:47:50;96630.13;;;30.81;38.58
58385;BME280;44185;47.844;8.966;2023-07-09T11:50:22;96623.50;;;30.77;34.17
58385;BME280;44185;47.844;8.966;2023-07-09T11:52:52;96620.41;;;31.13;37.06
58385;BME280;44185;47.844;8.966;2023-07-09T11:55:24;96617.28;;;31.32;35.89
58385;BME280;44185;47.844;8.966;2023-07-09T11:57:53;96620.19;;;31.20;35.30
58385;BME280;44185;47.844;8.966;2023-07-09T12:00:18;96620.09;;;31.10;33.34
58385;BME280;44185;47.844;8.966;2023-07-09T12:02:44;96621.13;;;31.31;34.07
58385;BME280;44185;47.844;8.966;2023-07-09T12:05:11;96611.31;;;31.35;33.64
58385;BME280;44185;47.844;8.966;2023-07-09T12:07:37;96617.25;;;31.27;35.23
58385;BME280;44185;47.844;8.966;2023-07-09T12:10:08;96613.38;;;31.23;34.66
58385;BME280;44185;47.844;8.966;2023-07-09T12:12:41;96613.19;;;31.02;36.57
58385;BME280;44185;47.844;8.966;2023-07-09T12:15:15;96603.44;;;30.89;35.82
58385;BME280;44185;47.844;8.966;2023-07-09T12:17:42;96606.72;;;31.41;37.68
58385;BME280;44185;47.844;8.966;2023-07-09T12:20:13;96602.63;;;31.66;37.46
58385;BME280;44185;47.844;8.966;2023-07-09T12:22:39;96598.34;;;31.81;34.94
58385;BME280;44185;47.844;8.966;2023-07-09T12:25:18;96598.88;;;31.50;33.83
58385;BME280;44185;47.844;8.966;2023-07-09T12:27:44;96592.97;;;31.58;34.93
58385;BME280;44185;47.844;8.966;2023-07-09T12:30:11;96588.09;;;31.66;33.09
58385;BME280;44185;47.844;8.966;2023-07-09T12:32:43;96584.72;;;31.53;30.83
58385;BME280;44185;47.844;8.966;2023-07-09T12:35:14;96582.13;;;31.69;31.27
58385;BME280;44185;47.844;8.966;2023-07-09T12:37:41;96575.22;;;31.61;31.76
58385;BME280;44185;47.844;8.966;2023-07-09T12:40:12;96568.88;;;31.55;29.63
58385;BME280;44185;47.844;8.966;2023-07-09T12:42:38;96567.94;;;31.77;33.75
58385;BME280;44185;47.844;8.966;2023-07-09T12:45:05;96579.59;;;31.62;31.02
58385;BME280;44185;47.844;8.966;2023-07-09T12:47:31;96567.53;;;31.58;34.03
58385;BME280;44185;47.844;8.966;2023-07-09T12:50:01;96574.91;;;31.57;33.34
58385;BME280;44185;47.844;8.966;2023-07-09T12:52:29;96576.84;;;31.29;32.22
58385;BME280;44185;47.844;8.966;2023-07-09T12:54:58;96578.59;;;31.46;31.57
58385;BME280;44185;47.844;8.966;2023-07-09T12:57:25;96571.69;;;31.38;31.88
58385;BME280;44185;47.844;8.966;2023-07-09T12:59:50;96566.41;;;31.53;32.32
58385;BME280;44185;47.844;8.966;2023-07-09T13:02:18;96564.06;;;31.68;33.38
58385;BME280;44185;47.844;8.966;2023-07-09T13:04:44;96572.28;;;31.73;31.40
58385;BME280;44185;47.844;8.966;2023-07-09T13:07:27;96566.63;;;31.80;31.43